Mc Allen Miller International Airport Mc Allen US
ICAO: KMFE
IATA: MFE
Category: Medium
Scheduled Services: Yes

Elevation: 107 ft
TransAlt. 18000 ft.

Airport Communications:
VALLEY APP/DEP:121
ASOS:128.5
ATIS:128.5
CTAF:118.5
GND:121.8
SAN ANGELO RDO:122.2
TWR:118.5
UNICOM:122.95

KMFE Zoom In..

Runways:

(A) RW 13 length 7120 ft width 150 ft
ILS 111.70 / hdg 134

(B) RW 18 length 2638 ft width 60 ft
---- / hdg 182

(C) RW 31 length 7120 ft width 150 ft
ILS 111.70 / hdg 314

(D) RW 36 length 2638 ft width 60 ft
---- / hdg 2

Location; KMFE
Day. 22 / Time. 23.53 Zulu
* Altimeter: 30.08
* Temperature: 21° c. 69.8°f.
* Wind from: 350° Speed 09 kn.
Dewpoint: -03° c.
Visibility: 10 Statute Miles.
Clouds: Clear (automated report).

KMFE 222353Z 35009KT 10SM CLR 21/M03 A3008 RMK AO2 SLP183 T02111028 10244 20211 53008


Wind From 350°
Speed 09 kn.

YouTube Music Video
 
jpsmedia.com for Web Design  worldairports.se 2018   terms of use